New Prague, MN

4:05 AM CDT on June 30, 2015 (GMT -0500)
Lincoln Ave | | Change Station
CLOSE
Current Station
Personal Weather Station
Location: New Prague, MN
Elevation: 1019 ft
Nearby Weather Stations

Elev 1019 ft 44.54 °N, 93.57 °W | Updated 22 seconds ago

Clear
Clear
62.1 °F
Feels Like 62.1 °F
N
0.0
Wind Variable Wind from North
Gusts 0.0 mph

Today
High -- | Low -- °F
--% Chance of Precip.
Yesterday
High -- | Low -- °F
Precip. -- in
5:32 AM 9:03 PM
Waxing Gibbous, 96% visible
Pressure 29.83 in
Visibility 2.0 miles
Clouds Clear
Dew Point 60 °F
Humidity 92%
Rainfall in
Snow Depth Not available.
UV 0 out of 12
Pollen 4.90 out of 12
Air Quality Not available.
Flu Activity Sporadic
SPECI KFCM 300629Z AUTO 00000KT 2SM BR CLR 18/17 A2983 RMK AO2 T01780172

More Conditions Fewer Conditions

Pressure 29.83 in
Visibility 2.0 miles
Clouds Clear
Dew Point 60 °F
Humidity 92%
Rainfall in
Snow Depth Not available.
UV 0 out of 12
Pollen 4.90 out of 12
Air Quality Not available.
Flu Activity Sporadic
SPECI KFCM 300629Z AUTO 00000KT 2SM BR CLR 18/17 A2983 RMK AO2 T01780172

More Conditions Fewer Conditions

10-Day Weather Forecast

×

Almanac

Astronomy

Jun. 30, 2015 Rise Set
Actual Time
Civil Twilight
Nautical Twilight
Astronomical Twilight
Moon
Length of Visible Light
Length of Day
Tomorrow will be .
, % of the Moon is Illuminated

Today's Extremes

State Highs State Lows

Community

WunderPhotos

Upload Photos

1,833,983 photos uploaded!

WunderBlogs® & News

Nearby

Air Quality

  Air Quality AQ Index Pollutant
Not available.

Snow Depth

Station Depth Elevation

Earthquake Activity

City Distance Mag. Time & Date
Minimum magnitude displayed is 2.5.

Coastal Water Temperatures

Place Temperature

Stations

Nearby Weather Stations

Station Location Temp. Windchill Dew Point Humidity Wind Precip. Elev Updated Type